createdAt,value
2023-04-02T00:00:09.460Z,6.64
2023-04-02T00:01:09.417Z,6.58
2023-04-02T00:02:09.459Z,6.56
2023-04-02T00:03:09.380Z,6.55
2023-04-02T00:04:09.432Z,6.55
2023-04-02T00:05:09.270Z,6.56
2023-04-02T00:06:09.296Z,6.54
2023-04-02T00:07:09.241Z,6.55
2023-04-02T00:08:09.326Z,6.58
2023-04-02T00:09:09.223Z,6.59
2023-04-02T00:10:09.299Z,6.58
2023-04-02T00:11:09.263Z,6.61
2023-04-02T00:12:09.327Z,6.61
2023-04-02T00:13:09.245Z,6.62
2023-04-02T00:14:09.412Z,6.61
2023-04-02T00:15:09.444Z,6.58
2023-04-02T00:16:09.171Z,6.64
2023-04-02T00:17:09.163Z,6.62
2023-04-02T00:18:09.272Z,6.59
2023-04-02T00:19:09.078Z,6.59
2023-04-02T00:20:09.268Z,6.61
2023-04-02T00:21:09.103Z,6.61
2023-04-02T00:22:09.187Z,6.59
2023-04-02T00:23:09.075Z,6.58
2023-04-02T00:24:09.049Z,6.55
2023-04-02T00:25:09.112Z,6.54
2023-04-02T00:26:09.042Z,6.54
2023-04-02T00:27:09.127Z,6.51
2023-04-02T00:28:08.980Z,6.51
2023-04-02T00:29:09.051Z,6.55
2023-04-02T00:30:08.993Z,6.54
2023-04-02T00:31:09.092Z,6.54
2023-04-02T00:32:09.029Z,6.54
2023-04-02T00:33:09.101Z,6.52
2023-04-02T00:34:08.952Z,6.52
2023-04-02T00:35:09.090Z,6.52
2023-04-02T00:36:08.905Z,6.51
2023-04-02T00:37:09.057Z,6.51
2023-04-02T00:38:08.975Z,6.46
2023-04-02T00:39:09.052Z,6.51
2023-04-02T00:40:08.846Z,6.48
2023-04-02T00:41:09.033Z,6.46
2023-04-02T00:42:08.833Z,6.43
2023-04-02T00:43:08.832Z,6.48
2023-04-02T00:44:08.855Z,6.48
2023-04-02T00:45:08.747Z,6.48
2023-04-02T00:46:09.007Z,6.44
2023-04-02T00:47:08.740Z,6.43
2023-04-02T00:48:08.793Z,6.41
2023-04-02T00:49:08.696Z,6.43
2023-04-02T00:50:08.798Z,6.41
2023-04-02T00:51:08.690Z,6.38
2023-04-02T00:52:08.866Z,6.38
2023-04-02T00:53:08.684Z,6.36
2023-04-02T00:54:08.732Z,6.36
2023-04-02T00:55:08.616Z,6.36
2023-04-02T00:56:08.733Z,6.34
2023-04-02T00:57:08.647Z,6.33
2023-04-02T00:58:08.753Z,6.33
2023-04-02T00:59:08.613Z,6.34
2023-04-02T01:00:08.671Z,6.36
2023-04-02T01:01:08.605Z,6.37
2023-04-02T01:02:08.679Z,6.36
2023-04-02T01:03:08.560Z,6.36
2023-04-02T01:04:08.734Z,6.36
2023-04-02T01:05:08.522Z,6.33
2023-04-02T01:06:08.757Z,6.30
2023-04-02T01:07:08.473Z,6.33
2023-04-02T01:08:08.639Z,6.27
2023-04-02T01:09:08.473Z,6.18
2023-04-02T01:10:08.595Z,6.15
2023-04-02T01:11:08.445Z,6.17
2023-04-02T01:12:08.543Z,6.12
2023-04-02T01:13:08.406Z,6.04
2023-04-02T01:14:08.444Z,6.03
2023-04-02T01:15:08.455Z,5.96
2023-04-02T01:16:08.443Z,5.94
2023-04-02T01:17:08.465Z,5.90
2023-04-02T01:18:19.234Z,5.89
2023-04-02T01:19:08.321Z,5.81
2023-04-02T01:20:08.411Z,5.76
2023-04-02T01:21:08.304Z,5.74
2023-04-02T01:22:08.453Z,5.72
2023-04-02T01:23:08.267Z,5.72
2023-04-02T01:24:08.538Z,5.72
2023-04-02T01:25:08.300Z,5.74
2023-04-02T01:26:08.276Z,5.81
2023-04-02T01:27:08.441Z,5.85
2023-04-02T01:28:08.227Z,5.89
2023-04-02T01:29:08.229Z,5.90
2023-04-02T01:30:08.194Z,5.94
2023-04-02T01:31:08.318Z,5.93
2023-04-02T01:32:08.172Z,5.96
2023-04-02T01:33:08.344Z,5.97
2023-04-02T01:34:08.147Z,6.03
2023-04-02T01:35:08.279Z,6.06
2023-04-02T01:36:08.182Z,6.11
2023-04-02T01:37:08.206Z,6.14
2023-04-02T01:38:08.366Z,6.09
2023-04-02T01:39:08.198Z,6.08
2023-04-02T01:40:08.102Z,6.08
2023-04-02T01:41:08.156Z,6.11
2023-04-02T01:42:08.058Z,6.14
2023-04-02T01:43:08.263Z,6.15
2023-04-02T01:44:08.024Z,6.19
2023-04-02T01:45:08.138Z,6.22
2023-04-02T01:46:08.006Z,6.25
2023-04-02T01:47:08.049Z,6.28
2023-04-02T01:48:08.022Z,6.28
2023-04-02T01:49:08.227Z,6.33
2023-04-02T01:50:07.962Z,6.36
2023-04-02T01:51:07.980Z,6.41
2023-04-02T01:52:07.934Z,6.41
2023-04-02T01:53:08.090Z,6.43
2023-04-02T01:54:07.926Z,6.46
2023-04-02T01:55:08.001Z,6.44
2023-04-02T01:56:07.887Z,6.43
2023-04-02T01:57:07.958Z,6.44
2023-04-02T01:58:07.919Z,6.41
2023-04-02T01:59:07.931Z,6.46
2023-04-02T02:00:07.839Z,6.44
2023-04-02T02:01:07.912Z,6.44
2023-04-02T02:02:07.846Z,6.48
2023-04-02T02:03:07.912Z,6.46
2023-04-02T02:04:07.812Z,6.49
2023-04-02T02:05:07.862Z,6.52
2023-04-02T02:06:07.881Z,6.51
2023-04-02T02:07:07.715Z,6.51
2023-04-02T02:08:07.801Z,6.44
2023-04-02T02:09:07.735Z,6.41
2023-04-02T02:10:07.835Z,6.38
2023-04-02T02:11:07.707Z,6.34
2023-04-02T02:12:07.835Z,6.34
2023-04-02T02:13:07.646Z,6.31
2023-04-02T02:14:07.742Z,6.30
2023-04-02T02:15:07.653Z,6.28
2023-04-02T02:16:07.806Z,6.25
2023-04-02T02:17:07.579Z,6.28
2023-04-02T02:18:07.681Z,6.22
2023-04-02T02:19:07.556Z,6.25
2023-04-02T02:20:07.733Z,6.28
2023-04-02T02:21:07.530Z,6.27
2023-04-02T02:22:07.639Z,6.25
2023-04-02T02:23:07.513Z,6.22
2023-04-02T02:24:07.628Z,6.25
2023-04-02T02:25:07.502Z,6.28
2023-04-02T02:26:07.676Z,6.28
2023-04-02T02:27:07.458Z,6.31
2023-04-02T02:28:07.551Z,6.33
2023-04-02T02:29:07.453Z,6.37
2023-04-02T02:30:07.696Z,6.38
2023-04-02T02:31:07.402Z,6.44
2023-04-02T02:32:07.603Z,6.49
2023-04-02T02:33:07.406Z,6.51
2023-04-02T02:34:07.582Z,6.54
2023-04-02T02:35:07.364Z,6.56
2023-04-02T02:36:07.547Z,6.62
2023-04-02T02:37:07.346Z,6.66
2023-04-02T02:38:07.497Z,6.64
2023-04-02T02:39:07.316Z,6.66
2023-04-02T02:40:07.415Z,6.67
2023-04-02T02:41:07.304Z,6.67
2023-04-02T02:42:07.368Z,6.70
2023-04-02T02:43:07.294Z,6.73
2023-04-02T02:44:07.340Z,6.70
2023-04-02T02:45:07.225Z,6.74
2023-04-02T02:46:07.414Z,6.74
2023-04-02T02:47:07.250Z,6.77
2023-04-02T02:48:07.290Z,6.77
2023-04-02T02:49:07.266Z,6.77
2023-04-02T02:50:07.246Z,6.79
2023-04-02T02:51:07.258Z,6.81
2023-04-02T02:52:07.228Z,6.84
2023-04-02T02:53:07.297Z,6.84
2023-04-02T02:54:07.152Z,6.85
2023-04-02T02:55:08.017Z,6.85
2023-04-02T02:56:07.123Z,6.89
2023-04-02T02:57:07.297Z,6.89
2023-04-02T02:58:07.131Z,6.89
2023-04-02T02:59:07.121Z,6.91
2023-04-02T03:00:07.075Z,6.94
2023-04-02T03:01:07.159Z,6.94
2023-04-02T03:02:07.223Z,6.94
2023-04-02T03:03:13.244Z,6.94
2023-04-02T03:04:07.139Z,6.92
2023-04-02T03:05:06.974Z,6.91
2023-04-02T03:06:07.051Z,6.92
2023-04-02T03:07:06.955Z,6.94
2023-04-02T03:08:07.124Z,6.91
2023-04-02T03:09:06.930Z,6.92
2023-04-02T03:10:06.983Z,6.94
2023-04-02T03:11:06.899Z,6.92
2023-04-02T03:12:06.993Z,6.92
2023-04-02T03:13:07.015Z,6.92
2023-04-02T03:14:06.906Z,6.95
2023-04-02T03:15:06.917Z,6.92
2023-04-02T03:16:06.925Z,6.91
2023-04-02T03:17:06.900Z,6.92
2023-04-02T03:18:06.982Z,6.97
2023-04-02T03:19:06.802Z,6.94
2023-04-02T03:20:06.951Z,6.97
2023-04-02T03:21:06.798Z,6.98
2023-04-02T03:22:06.848Z,6.94
2023-04-02T03:23:06.845Z,6.97
2023-04-02T03:24:06.781Z,6.99
2023-04-02T03:25:06.760Z,6.98
2023-04-02T03:26:06.764Z,6.99
2023-04-02T03:27:06.746Z,6.99
2023-04-02T03:28:06.813Z,6.98
2023-04-02T03:29:06.712Z,6.97
2023-04-02T03:30:06.917Z,6.98
2023-04-02T03:31:06.685Z,6.98
2023-04-02T03:32:06.710Z,6.97
2023-04-02T03:33:06.657Z,6.98
2023-04-02T03:34:06.762Z,6.97
2023-04-02T03:35:06.621Z,6.99
2023-04-02T03:36:06.661Z,6.99
2023-04-02T03:37:06.577Z,6.99
2023-04-02T03:38:06.761Z,6.99
2023-04-02T03:39:06.590Z,6.99
2023-04-02T03:40:06.625Z,7.03
2023-04-02T03:41:06.542Z,7.02
2023-04-02T03:42:06.570Z,7.02
2023-04-02T03:43:06.524Z,7.03
2023-04-02T03:44:06.700Z,7.03
2023-04-02T03:45:06.504Z,7.02
2023-04-02T03:46:06.556Z,6.99
2023-04-02T03:47:06.455Z,7.02
2023-04-02T03:48:06.520Z,6.98
2023-04-02T03:49:06.432Z,6.97
2023-04-02T03:50:06.552Z,6.95
2023-04-02T03:51:06.437Z,6.97
2023-04-02T03:52:06.420Z,6.95
2023-04-02T03:53:06.378Z,6.97
2023-04-02T03:54:06.462Z,6.97
2023-04-02T03:55:06.383Z,6.97
2023-04-02T03:56:06.481Z,6.95
2023-04-02T03:57:06.376Z,6.97
2023-04-02T03:58:06.388Z,6.92
2023-04-02T03:59:06.344Z,6.95
2023-04-02T04:00:06.506Z,6.95
2023-04-02T04:01:06.309Z,6.95
2023-04-02T04:02:06.358Z,6.95
2023-04-02T04:03:06.290Z,6.97
2023-04-02T04:04:06.352Z,6.97
2023-04-02T04:05:06.223Z,6.94
2023-04-02T04:06:06.351Z,6.95
2023-04-02T04:07:06.226Z,6.95
2023-04-02T04:08:06.313Z,6.94
2023-04-02T04:09:06.240Z,6.94
2023-04-02T04:10:06.195Z,6.95
2023-04-02T04:11:06.364Z,6.94
2023-04-02T04:12:06.187Z,6.95
2023-04-02T04:13:06.161Z,6.98
2023-04-02T04:14:06.174Z,6.98
2023-04-02T04:15:06.102Z,6.99
2023-04-02T04:16:06.314Z,7.02
2023-04-02T04:17:06.116Z,7.03
2023-04-02T04:18:06.161Z,7.02
2023-04-02T04:19:06.053Z,6.99
2023-04-02T04:20:06.113Z,7.03
2023-04-02T04:21:06.024Z,6.99
2023-04-02T04:22:06.137Z,6.98
2023-04-02T04:23:06.022Z,6.98
2023-04-02T04:24:06.166Z,6.97
2023-04-02T04:25:05.998Z,6.95
2023-04-02T04:26:06.106Z,6.95
2023-04-02T04:27:05.974Z,6.94
2023-04-02T04:28:06.056Z,6.92
2023-04-02T04:29:05.988Z,6.92
2023-04-02T04:30:06.278Z,6.89
2023-04-02T04:31:05.943Z,6.88
2023-04-02T04:32:06.127Z,6.88
2023-04-02T04:33:05.961Z,6.87
2023-04-02T04:34:05.907Z,6.89
2023-04-02T04:35:05.965Z,6.89
2023-04-02T04:36:05.897Z,6.89
2023-04-02T04:37:05.932Z,6.88
2023-04-02T04:38:05.837Z,6.87
2023-04-02T04:39:05.852Z,6.87
2023-04-02T04:40:05.821Z,6.89
2023-04-02T04:41:05.886Z,6.89
2023-04-02T04:42:05.777Z,6.91
2023-04-02T04:43:05.981Z,6.91
2023-04-02T04:44:05.774Z,6.94
2023-04-02T04:45:05.802Z,6.92
2023-04-02T04:46:05.750Z,6.91
2023-04-02T04:47:05.802Z,6.94
2023-04-02T04:48:05.710Z,6.95
2023-04-02T04:49:05.777Z,6.99
2023-04-02T04:50:06.555Z,6.99
2023-04-02T04:51:05.679Z,7.06
2023-04-02T04:52:05.724Z,7.05
2023-04-02T04:53:05.687Z,7.06
2023-04-02T04:54:05.802Z,7.12
2023-04-02T04:55:05.810Z,7.12
2023-04-02T04:56:18.052Z,7.10
2023-04-02T04:57:05.626Z,7.09
2023-04-02T04:58:05.753Z,7.09
2023-04-02T04:59:05.575Z,7.09
2023-04-02T05:00:05.623Z,7.09
2023-04-02T05:01:05.561Z,7.09
2023-04-02T05:02:05.596Z,7.09
2023-04-02T05:03:05.569Z,7.09
2023-04-02T05:04:05.602Z,7.09
2023-04-02T05:05:05.569Z,7.07
2023-04-02T05:06:05.537Z,7.06
2023-04-02T05:07:05.501Z,7.03
2023-04-02T05:08:05.610Z,7.03
2023-04-02T05:09:05.445Z,7.03
2023-04-02T05:10:05.492Z,7.05
2023-04-02T05:11:05.437Z,7.05
2023-04-02T05:12:05.477Z,7.05
2023-04-02T05:13:05.410Z,7.06
2023-04-02T05:14:05.457Z,7.03
2023-04-02T05:15:05.402Z,7.02
2023-04-02T05:16:05.503Z,7.03
2023-04-02T05:17:05.396Z,7.03
2023-04-02T05:18:05.544Z,6.98
2023-04-02T05:19:05.326Z,6.98
2023-04-02T05:20:05.314Z,6.95
2023-04-02T05:21:05.299Z,6.97
2023-04-02T05:22:05.360Z,6.97
2023-04-02T05:23:05.295Z,6.98
2023-04-02T05:24:05.416Z,6.95
2023-04-02T05:25:05.278Z,6.97
2023-04-02T05:26:05.257Z,6.98
2023-04-02T05:27:05.234Z,6.95
2023-04-02T05:28:05.249Z,6.95
2023-04-02T05:29:05.283Z,6.94
2023-04-02T05:30:05.274Z,6.94
2023-04-02T05:31:05.301Z,6.92
2023-04-02T05:32:05.140Z,6.92
2023-04-02T05:33:05.439Z,6.91
2023-04-02T05:34:05.106Z,6.91
2023-04-02T05:35:05.166Z,6.88
2023-04-02T05:36:05.131Z,6.88
2023-04-02T05:37:06.922Z,6.87
2023-04-02T05:38:05.189Z,6.88
2023-04-02T05:39:05.070Z,6.87
2023-04-02T05:40:05.235Z,6.88
2023-04-02T05:41:05.058Z,6.87
2023-04-02T05:42:05.078Z,6.88
2023-04-02T05:43:05.054Z,6.88
2023-04-02T05:44:05.026Z,6.88
2023-04-02T05:45:05.141Z,6.88
2023-04-02T05:46:04.957Z,6.88
2023-04-02T05:47:05.129Z,6.92
2023-04-02T05:48:05.222Z,6.92
2023-04-02T05:49:05.301Z,6.92
2023-04-02T05:50:05.144Z,6.94
2023-04-02T05:51:05.211Z,6.95
2023-04-02T05:52:05.016Z,6.97
2023-04-02T05:53:05.172Z,7.02
2023-04-02T05:54:05.023Z,7.03
2023-04-02T05:55:05.072Z,7.02
2023-04-02T05:56:05.084Z,7.03
2023-04-02T05:57:05.207Z,7.05
2023-04-02T05:58:29.393Z,7.07
2023-04-02T05:59:04.959Z,7.13
2023-04-02T06:00:04.872Z,7.12
2023-04-02T06:01:04.858Z,7.15
2023-04-02T06:02:04.837Z,7.13
2023-04-02T06:03:04.854Z,7.15
2023-04-02T06:04:04.850Z,7.13
2023-04-02T06:05:04.827Z,7.15
2023-04-02T06:06:04.831Z,7.15
2023-04-02T06:07:04.843Z,7.16
2023-04-02T06:08:04.701Z,7.20
2023-04-02T06:09:04.875Z,7.24
2023-04-02T06:10:04.694Z,7.25
2023-04-02T06:11:04.840Z,7.28
2023-04-02T06:12:04.672Z,7.30
2023-04-02T06:13:04.663Z,7.32
2023-04-02T06:14:04.612Z,7.34
2023-04-02T06:15:04.648Z,7.40
2023-04-02T06:16:04.625Z,7.42
2023-04-02T06:17:04.732Z,7.46
2023-04-02T06:18:04.660Z,7.52
2023-04-02T06:19:04.719Z,7.55
2023-04-02T06:20:04.555Z,7.57
2023-04-02T06:21:04.702Z,7.67
2023-04-02T06:22:04.689Z,7.69
2023-04-02T06:23:04.558Z,7.75
2023-04-02T06:24:04.532Z,7.80
2023-04-02T06:25:04.514Z,7.80
2023-04-02T06:26:04.540Z,7.83
2023-04-02T06:27:04.573Z,7.87
2023-04-02T06:28:04.444Z,7.90
2023-04-02T06:29:04.598Z,7.95
2023-04-02T06:30:04.406Z,7.98
2023-04-02T06:31:04.753Z,8.01
2023-04-02T06:32:04.394Z,8.08
2023-04-02T06:33:04.640Z,8.08
2023-04-02T06:34:04.370Z,8.12
2023-04-02T06:35:04.446Z,8.16
2023-04-02T06:36:04.379Z,8.20
2023-04-02T06:37:04.408Z,8.25
2023-04-02T06:38:04.315Z,8.25
2023-04-02T06:39:04.526Z,8.30
2023-04-02T06:40:04.287Z,8.30
2023-04-02T06:41:04.430Z,8.30
2023-04-02T06:42:04.265Z,8.37
2023-04-02T06:43:04.374Z,8.38
2023-04-02T06:44:04.254Z,8.43
2023-04-02T06:45:04.316Z,8.45
2023-04-02T06:46:04.307Z,8.48
2023-04-02T06:47:04.267Z,8.47
2023-04-02T06:48:04.215Z,8.52
2023-04-02T06:49:04.251Z,8.55
2023-04-02T06:50:04.229Z,8.59
2023-04-02T06:51:04.232Z,8.61
2023-04-02T06:52:04.132Z,8.62
2023-04-02T06:53:04.215Z,8.66
2023-04-02T06:54:04.116Z,8.70
2023-04-02T06:55:04.324Z,8.73
2023-04-02T06:56:04.089Z,8.74
2023-04-02T06:57:04.286Z,8.76
2023-04-02T06:58:04.128Z,8.74
2023-04-02T06:59:04.642Z,8.77
2023-04-02T07:00:04.082Z,8.80
2023-04-02T07:01:04.053Z,8.84
2023-04-02T07:02:04.130Z,8.87
2023-04-02T07:03:04.177Z,8.86
2023-04-02T07:04:04.019Z,8.86
2023-04-02T07:05:04.203Z,8.87
2023-04-02T07:06:04.019Z,8.91
2023-04-02T07:07:03.991Z,8.91
2023-04-02T07:08:04.138Z,8.92
2023-04-02T07:09:04.014Z,8.89
2023-04-02T07:10:03.939Z,8.89
2023-04-02T07:11:03.968Z,8.87
2023-04-02T07:12:04.001Z,8.81
2023-04-02T07:13:03.896Z,8.86
2023-04-02T07:14:03.932Z,8.87
2023-04-02T07:15:03.881Z,8.92
2023-04-02T07:16:04.053Z,8.95
2023-04-02T07:17:03.969Z,9.01
2023-04-02T07:18:03.979Z,9.05
2023-04-02T07:19:03.882Z,9.05
2023-04-02T07:20:03.909Z,9.10
2023-04-02T07:21:03.998Z,9.13
2023-04-02T07:22:03.972Z,9.17
2023-04-02T07:23:03.903Z,9.20
2023-04-02T07:24:03.989Z,9.23
2023-04-02T07:25:03.759Z,9.29
2023-04-02T07:26:03.770Z,9.31
2023-04-02T07:27:03.744Z,9.33
2023-04-02T07:28:03.751Z,9.36
2023-04-02T07:29:03.722Z,9.40
2023-04-02T07:30:03.674Z,9.42
2023-04-02T07:31:03.691Z,9.40
2023-04-02T07:32:03.682Z,9.42
2023-04-02T07:33:03.794Z,9.42
2023-04-02T07:34:03.744Z,9.46
2023-04-02T07:35:03.753Z,9.51
2023-04-02T07:36:03.803Z,9.56
2023-04-02T07:37:03.684Z,9.60
2023-04-02T07:38:04.282Z,9.69
2023-04-02T07:39:04.011Z,9.74
2023-04-02T07:40:03.884Z,9.74
2023-04-02T07:41:03.643Z,9.75
2023-04-02T07:42:03.755Z,9.79
2023-04-02T07:43:03.550Z,9.84
2023-04-02T07:44:03.719Z,9.86
2023-04-02T07:45:05.905Z,9.84
2023-04-02T07:46:03.532Z,9.86
2023-04-02T07:47:03.686Z,9.87
2023-04-02T07:48:03.692Z,9.87
2023-04-02T07:49:03.601Z,9.87
2023-04-02T07:50:03.426Z,9.90
2023-04-02T07:51:03.566Z,9.90
2023-04-02T07:52:03.422Z,9.89
2023-04-02T07:53:03.615Z,9.86
2023-04-02T07:54:03.593Z,9.89
2023-04-02T07:55:03.402Z,9.89
2023-04-02T07:56:03.420Z,9.86
2023-04-02T07:57:03.423Z,9.87
2023-04-02T07:58:03.391Z,9.87
2023-04-02T07:59:03.343Z,9.93
2023-04-02T08:00:03.520Z,9.96
2023-04-02T08:01:03.294Z,10.01
2023-04-02T08:02:03.362Z,10.07
2023-04-02T08:03:03.461Z,10.15
2023-04-02T08:04:03.415Z,10.20
2023-04-02T08:05:03.254Z,10.23
2023-04-02T08:06:03.376Z,10.22
2023-04-02T08:07:03.212Z,10.12
2023-04-02T08:08:03.383Z,10.15
2023-04-02T08:09:03.235Z,10.18
2023-04-02T08:10:03.451Z,10.25
2023-04-02T08:11:03.194Z,10.23
2023-04-02T08:12:03.180Z,10.25
2023-04-02T08:13:03.121Z,10.30
2023-04-02T08:14:03.221Z,10.23
2023-04-02T08:15:03.306Z,10.23
2023-04-02T08:16:03.087Z,10.25
2023-04-02T08:17:03.332Z,10.23
2023-04-02T08:18:03.112Z,10.18
2023-04-02T08:19:03.237Z,10.20
2023-04-02T08:20:03.414Z,10.23
2023-04-02T08:21:03.118Z,10.20
2023-04-02T08:22:03.122Z,10.25
2023-04-02T08:23:02.982Z,10.30
2023-04-02T08:24:03.191Z,10.38
2023-04-02T08:25:03.086Z,10.40
2023-04-02T08:26:02.975Z,10.42
2023-04-02T08:27:03.028Z,10.36
2023-04-02T08:28:03.025Z,10.29
2023-04-02T08:29:03.016Z,10.14
2023-04-02T08:30:03.072Z,10.11
2023-04-02T08:31:02.956Z,10.14
2023-04-02T08:32:03.008Z,10.12
2023-04-02T08:33:02.917Z,10.11
2023-04-02T08:34:03.089Z,10.17
2023-04-02T08:35:03.066Z,10.25
2023-04-02T08:36:02.889Z,10.29
2023-04-02T08:37:02.916Z,10.32
2023-04-02T08:38:02.820Z,10.30
2023-04-02T08:39:02.874Z,10.29
2023-04-02T08:40:02.802Z,10.30
2023-04-02T08:41:03.108Z,10.26
2023-04-02T08:42:02.809Z,10.20
2023-04-02T08:43:02.855Z,10.15
2023-04-02T08:44:02.746Z,10.15
2023-04-02T08:45:10.851Z,10.14
2023-04-02T08:46:02.752Z,10.11
2023-04-02T08:47:02.846Z,10.08
2023-04-02T08:48:02.764Z,10.09
2023-04-02T08:49:02.737Z,10.05
2023-04-02T08:50:02.685Z,10.05
2023-04-02T08:51:02.957Z,10.04
2023-04-02T08:52:02.649Z,10.05
2023-04-02T08:53:02.759Z,10.08
2023-04-02T08:54:02.682Z,10.07
2023-04-02T08:55:02.882Z,10.14
2023-04-02T08:56:02.669Z,10.17
2023-04-02T08:57:02.702Z,10.18
2023-04-02T08:58:02.572Z,10.26
2023-04-02T08:59:02.587Z,10.33
2023-04-02T09:00:02.583Z,10.40
2023-04-02T09:01:02.626Z,10.44
2023-04-02T09:02:02.540Z,10.40
2023-04-02T09:03:02.703Z,10.40
2023-04-02T09:04:02.471Z,10.38
2023-04-02T09:05:02.714Z,10.36
2023-04-02T09:06:02.471Z,10.42
2023-04-02T09:07:02.653Z,10.42
2023-04-02T09:08:02.433Z,10.47
2023-04-02T09:09:02.456Z,10.51
2023-04-02T09:10:02.468Z,10.67
2023-04-02T09:11:02.502Z,10.78
2023-04-02T09:12:02.371Z,10.79
2023-04-02T09:13:02.535Z,10.84
2023-04-02T09:14:02.365Z,10.89
2023-04-02T09:15:02.552Z,10.96
2023-04-02T09:16:02.554Z,10.99
2023-04-02T09:17:02.312Z,11.03
2023-04-02T09:18:02.459Z,11.02
2023-04-02T09:19:02.281Z,11.06
2023-04-02T09:20:02.527Z,11.04
2023-04-02T09:21:02.272Z,11.02
2023-04-02T09:22:02.359Z,11.03
2023-04-02T09:23:02.220Z,11.02
2023-04-02T09:24:03.981Z,11.06
2023-04-02T09:25:02.202Z,11.07
2023-04-02T09:26:04.442Z,11.11
2023-04-02T09:27:02.176Z,11.07
2023-04-02T09:28:02.423Z,11.10
2023-04-02T09:29:02.349Z,11.11
2023-04-02T09:30:02.222Z,11.19
2023-04-02T09:31:02.166Z,11.21
2023-04-02T09:32:02.657Z,11.22
2023-04-02T09:33:02.697Z,11.22
2023-04-02T09:34:02.746Z,11.17
2023-04-02T09:35:04.194Z,11.06
2023-04-02T09:36:02.298Z,11.07
2023-04-02T09:37:02.796Z,11.15
2023-04-02T09:38:03.269Z,11.15
2023-04-02T09:39:02.674Z,11.11
2023-04-02T09:40:02.444Z,11.19
2023-04-02T09:41:03.468Z,11.24
2023-04-02T09:42:05.538Z,11.19
2023-04-02T09:43:02.704Z,11.19
2023-04-02T09:44:02.359Z,11.22
2023-04-02T09:45:02.260Z,11.32
2023-04-02T09:46:01.947Z,11.33
2023-04-02T09:47:02.173Z,11.39
2023-04-02T09:48:02.014Z,11.37
2023-04-02T09:49:02.576Z,11.33
2023-04-02T09:50:01.907Z,11.33
2023-04-02T09:51:01.946Z,11.42
2023-04-02T09:52:01.956Z,11.44
2023-04-02T09:53:01.920Z,11.47
2023-04-02T09:54:01.971Z,11.44
2023-04-02T09:55:01.823Z,11.37
2023-04-02T09:56:01.973Z,11.37
2023-04-02T09:57:01.854Z,11.40
2023-04-02T09:58:02.198Z,11.42
2023-04-02T09:59:01.763Z,11.35
2023-04-02T10:00:01.907Z,11.32
2023-04-02T10:01:01.771Z,11.37
2023-04-02T10:02:01.862Z,11.39
2023-04-02T10:03:01.830Z,11.55
2023-04-02T10:04:01.850Z,11.67
2023-04-02T10:05:01.729Z,11.80
2023-04-02T10:06:01.739Z,11.94
2023-04-02T10:07:01.669Z,12.02
2023-04-02T10:08:01.874Z,12.19
2023-04-02T10:09:02.170Z,12.29
2023-04-02T10:10:02.019Z,12.38
2023-04-02T10:11:02.109Z,12.53
2023-04-02T10:12:01.994Z,12.62
2023-04-02T10:13:01.924Z,12.68
2023-04-02T10:14:01.598Z,12.75
2023-04-02T10:15:01.677Z,12.74
2023-04-02T10:16:01.672Z,12.77
2023-04-02T10:17:01.664Z,12.82
2023-04-02T10:18:01.771Z,12.86
2023-04-02T10:19:01.524Z,12.82
2023-04-02T10:20:01.656Z,12.75
2023-04-02T10:21:01.503Z,12.60
2023-04-02T10:22:01.569Z,12.50
2023-04-02T10:23:02.577Z,12.50
2023-04-02T10:24:01.473Z,12.56
2023-04-02T10:25:01.572Z,12.60
2023-04-02T10:26:01.485Z,12.62
2023-04-02T10:27:01.469Z,12.68
2023-04-02T10:28:01.500Z,12.71
2023-04-02T10:29:01.522Z,12.77
2023-04-02T10:30:01.420Z,12.78
2023-04-02T10:31:01.555Z,12.82
2023-04-02T10:32:01.627Z,12.85
2023-04-02T10:33:01.444Z,12.86
2023-04-02T10:34:01.399Z,12.89
2023-04-02T10:35:01.471Z,12.90
2023-04-02T10:36:01.349Z,12.92
2023-04-02T10:37:01.445Z,13.04
2023-04-02T10:38:01.359Z,13.11
2023-04-02T10:39:01.284Z,13.05
2023-04-02T10:40:01.452Z,13.01
2023-04-02T10:41:01.270Z,13.04
2023-04-02T10:42:01.412Z,13.10
2023-04-02T10:43:01.331Z,13.14
2023-04-02T10:44:12.595Z,13.20
2023-04-02T10:45:01.256Z,13.15
2023-04-02T10:46:01.306Z,13.14
2023-04-02T10:47:01.177Z,13.19
2023-04-02T10:48:01.558Z,13.20
2023-04-02T10:49:01.829Z,13.17
2023-04-02T10:50:01.623Z,13.26
2023-04-02T10:51:01.239Z,13.36
2023-04-02T10:52:02.046Z,13.41
2023-04-02T10:53:01.445Z,13.45
2023-04-02T10:54:01.714Z,13.48
2023-04-02T10:55:02.347Z,13.52
2023-04-02T10:56:01.196Z,13.45
2023-04-02T10:57:01.153Z,13.38
2023-04-02T10:58:01.203Z,13.41
2023-04-02T10:59:01.010Z,13.41
2023-04-02T11:00:01.221Z,13.41
2023-04-02T11:01:01.000Z,13.41
2023-04-02T11:02:01.156Z,13.38
2023-04-02T11:03:01.050Z,13.36
2023-04-02T11:04:01.079Z,13.41
2023-04-02T11:05:01.978Z,13.51
2023-04-02T11:06:01.802Z,13.54
2023-04-02T11:07:13.191Z,13.62
2023-04-02T11:08:01.028Z,13.73
2023-04-02T11:09:00.998Z,13.85
2023-04-02T11:10:01.019Z,14.03
2023-04-02T11:11:02.808Z,14.21
2023-04-02T11:13:01.404Z,14.51
2023-04-02T11:14:02.201Z,14.58
2023-04-02T11:15:02.105Z,14.69
2023-04-02T11:16:02.164Z,14.77
2023-04-02T11:17:02.009Z,14.81
2023-04-02T11:18:02.121Z,14.86
2023-04-02T11:19:02.116Z,14.88
2023-04-02T11:20:02.014Z,14.88
2023-04-02T11:21:02.131Z,14.86
2023-04-02T11:22:03.767Z,14.88
2023-04-02T11:23:01.964Z,14.89
2023-04-02T11:24:02.853Z,14.94
2023-04-02T11:25:02.006Z,14.96
2023-04-02T11:26:01.969Z,14.95
2023-04-02T11:27:01.983Z,14.89
2023-04-02T11:28:01.903Z,14.77
2023-04-02T11:29:02.010Z,14.69
2023-04-02T11:30:01.913Z,14.68
2023-04-02T11:31:01.936Z,14.75
2023-04-02T11:32:01.838Z,14.81
2023-04-02T11:33:02.293Z,14.81
2023-04-02T11:34:01.798Z,14.83
2023-04-02T11:35:07.203Z,14.84
2023-04-02T11:36:01.910Z,14.83
2023-04-02T11:37:01.896Z,14.68
2023-04-02T11:38:01.854Z,14.58
2023-04-02T11:39:14.682Z,14.62
2023-04-02T11:40:01.999Z,14.69
2023-04-02T11:41:01.917Z,14.70
2023-04-02T11:42:01.825Z,14.78
2023-04-02T11:43:01.999Z,14.89
2023-04-02T11:44:01.693Z,15.01
2023-04-02T11:45:01.747Z,15.09
2023-04-02T11:46:01.745Z,15.07
2023-04-02T11:47:01.849Z,15.10
2023-04-02T11:48:02.073Z,15.11
2023-04-02T11:49:01.723Z,15.17
2023-04-02T11:50:01.648Z,15.09
2023-04-02T11:51:01.593Z,14.92
2023-04-02T11:52:11.401Z,14.92
2023-04-02T11:53:01.622Z,15.01
2023-04-02T11:54:01.775Z,15.14
2023-04-02T11:55:01.677Z,15.23
2023-04-02T11:56:01.588Z,15.27
2023-04-02T11:57:01.620Z,15.28
2023-04-02T11:58:01.593Z,15.29
2023-04-02T11:59:01.569Z,15.41
2023-04-02T12:00:01.678Z,15.38
2023-04-02T12:01:01.634Z,15.43
2023-04-02T12:02:01.642Z,15.50
2023-04-02T12:03:01.478Z,15.51
2023-04-02T12:04:01.606Z,15.60
2023-04-02T12:05:01.457Z,15.68
2023-04-02T12:06:03.685Z,15.76
2023-04-02T12:07:01.362Z,15.78
2023-04-02T12:08:01.450Z,15.72
2023-04-02T12:09:01.437Z,15.74
2023-04-02T12:10:01.508Z,15.76
2023-04-02T12:11:01.309Z,15.71
2023-04-02T12:12:01.415Z,15.72
2023-04-02T12:13:01.320Z,15.67
2023-04-02T12:14:01.533Z,15.62
2023-04-02T12:15:01.266Z,15.57
2023-04-02T12:16:01.341Z,15.57
2023-04-02T12:17:01.260Z,15.53
2023-04-02T12:18:01.371Z,15.44
2023-04-02T12:19:01.267Z,15.35
2023-04-02T12:20:03.172Z,15.25
2023-04-02T12:21:01.205Z,15.13
2023-04-02T12:22:01.409Z,14.98
2023-04-02T12:23:01.248Z,14.81
2023-04-02T12:24:01.274Z,14.69
2023-04-02T12:25:01.182Z,14.58
2023-04-02T12:26:01.193Z,14.45
2023-04-02T12:27:01.113Z,14.33
2023-04-02T12:28:01.276Z,14.22
2023-04-02T12:29:01.120Z,14.15
2023-04-02T12:30:01.195Z,14.15
2023-04-02T12:31:01.133Z,14.12
2023-04-02T12:32:01.082Z,14.07
2023-04-02T12:33:01.194Z,14.02
2023-04-02T12:34:01.047Z,14.00
2023-04-02T12:35:01.141Z,13.97
2023-04-02T12:36:01.183Z,13.96
2023-04-02T12:37:01.033Z,13.89
2023-04-02T12:38:01.091Z,13.85
2023-04-02T12:39:00.983Z,13.81
2023-04-02T12:40:01.097Z,13.79
2023-04-02T12:41:01.065Z,13.81
2023-04-02T12:42:00.976Z,13.78
2023-04-02T12:43:00.953Z,13.82
2023-04-02T12:44:00.948Z,13.85
2023-04-02T12:45:01.401Z,13.88
2023-04-02T12:46:00.944Z,13.91
2023-04-02T12:47:00.966Z,13.89
2023-04-02T12:48:00.960Z,13.87
2023-04-02T12:49:00.925Z,13.82
2023-04-02T12:50:00.812Z,13.82
2023-04-02T12:51:00.935Z,13.79
2023-04-02T12:52:00.783Z,13.82
2023-04-02T12:53:00.891Z,13.78
2023-04-02T12:54:00.761Z,13.75
2023-04-02T12:55:00.984Z,13.69
2023-04-02T12:56:00.766Z,13.75
2023-04-02T12:57:00.859Z,13.73
2023-04-02T12:58:00.760Z,13.71
2023-04-02T12:59:00.775Z,13.69
2023-04-02T13:00:00.707Z,13.67
2023-04-02T13:01:00.808Z,13.63
2023-04-02T13:02:00.844Z,13.60
2023-04-02T13:03:00.732Z,13.60
2023-04-02T13:04:00.866Z,13.62
2023-04-02T13:05:00.703Z,13.62
2023-04-02T13:06:01.426Z,13.60
2023-04-02T13:07:01.178Z,13.55
2023-04-02T13:08:00.862Z,13.46
2023-04-02T13:09:01.117Z,13.44